Mudgee, Australia
Current Conditions -  °F | °C
As of 5:00 AM on Sunday 26 Oct 2014 (Local Time) from YMDG Reporting Station
Clear Clear  
Wind Chill: 57°   Ceiling: Unl
Heat Index: 57°   Visibility: NA
Dew Point: 48°   Wind: 3mph
Humidity: 72%   Direction: 20°NNE
Pressure: 29.91"   Gusts: NA
Location:  32.59°S, 149.59°E
Report Text: YMDG 251800Z AUTO 02003KT //// // NCD 14/09 Q1013
Loading
Personal Weather Stations






























Interactive Weather Map
Tropical Storm Tracking
New forecast layout! Learn more

10-Day Weather Forecast

Advertisements
Track Severe Weather on mobile